Sign Up for Free

Track your rides and runs via your iPhone, Android or GPS device, analyze your performance, and compare with friends.

Mur de Huy climb

Ride Segment Huy, Région Wallonne, Belgium
  • 1.2km
    Distance
  • 10%
    Avg Grade
  • 122m
    Lowest Elev
  • 242m
    Highest Elev
  • 120m
    Elev Difference
  • Climb Category
    2,767 Attempts By 1,975 People

Men's Leaderboard

Rank Name Speed Power VAM Time
1 Pieter Serry 20.9km/h 471W Powermeter 2003 3:35
2 Romain Bardet 20.8km/h 468W - 1993 3:36
3 Roy Jérémy 20.3km/h 505W - 1948 3:41
3 Thomas Degand 20.3km/h 1948 3:41
5 Lars Petter Nordhaug 20.1km/h 0W Powermeter 1931 3:43
6 Thomas Sprengers 19.8km/h 398W Powermeter 1905 3:46
7 bart dockx 19.8km/h 1897 3:47
8 Laurens ten Dam 19.5km/h 1872 3:50
8 Eliot Lietaer 19.5km/h 443W Powermeter 1872 3:50
10 Peter Stetina 19.4km/h 1864 3:51
10 jan bakelants 19.4km/h 428W - 1864 3:51
12 Craig Lewis 19.3km/h 108W Powermeter 1848 3:53
12 ser dew 19.3km/h 383W - 1848 3:53
14 Carlos Verona 19.1km/h 1832 3:55
14 Edward Theuns 19.1km/h 487W Powermeter 1832 3:55
16 Bob Schoonbroodt 18.9km/h 498W Powermeter 1817 3:57
17 Lubomír Petruš 18.8km/h 418W - 1809 3:58
17 Paul Martens 18.8km/h 447W Powermeter 1809 3:58
17 Laurens De Vreese 18.8km/h 412W - 1809 3:58
20 David Lopez 18.8km/h 1802 3:59

Join Strava to see the full leaderboard

Women's Leaderboard

Rank Name Speed Power VAM Time
1 Ashleigh Moolman Pasio 18.6km/h 329W - 1787 4:01
2 Elisa Longo Borghini 18.4km/h 380W - 1765 4:04
3 Marianne Vos 17.9km/h 348W - 1715 4:11
4 Emma Pooley 17.7km/h 1702 4:13
5 Ellen van Dijk 17.5km/h 1682 4:16
6 Katrin G. 17.5km/h 297W Powermeter 1675 4:17
7 Annemiek van Vleuten 16.9km/h 207W Powermeter 1619 4:26
8 Evelyn Stevens 16.8km/h 318W - 1613 4:27
9 Pauliena R. 16.6km/h 330W - 1589 4:31
10 Carmen S. 16.4km/h 1577 4:33
11 Clara Hughes 16.0km/h 379W - 1532 4:41
12 Marijn de Vries 15.6km/h 1500 4:47
13 Vera K. 15.6km/h 1495 4:48
14 Lucinda Brand 15.3km/h 330W Powermeter 1469 4:53
15 Fanny Leleu 14.6km/h 266W - 1402 5:07
16 Carlee T. 14.6km/h 262W - 1398 5:08
17 Rozanne S. 14.4km/h 159W - 1384 5:11
18 Jessica Cutler 14.1km/h 271W - 1354 5:18
19 Kirsten Halliday 14.0km/h 243W - 1346 5:20
20 Jennifer Wheeler 13.7km/h 314W Powermeter 1317 5:27